Ruston, LA

3:37 PM CDT on August 23, 2014 (GMT -0500)
Ruston Regional | Change Station
CLOSE
Current Station
Airport
Location: Ruston,
Elevation: 312 ft
Nearby Weather Stations

Elev 312 ft 32.51 °N, 92.59 °W | Updated 22 minutes ago

Clear
Clear
93 °F
Feels Like 98 °F
N
6
Wind Variable Wind from SSW

Today
High -- | Low -- °F
--% Chance of Precip.
Yesterday
High -- | Low -- °F
Precip. -- in
6:39 AM 7:46 PM
Waning Crescent, 3% visible
Pressure 30.03 in
Visibility 10.0 miles
Clouds Clear
Heat Index 98 °F
Dew Point 70 °F
Humidity 47%
Rainfall 0.00 in
Snow Depth Not available.
UV 8 out of 12
Pollen 8.80 out of 12
Air Quality Not available.
Flu Activity Not available.
METAR KRSN 232015Z AUTO 20005KT 10SM CLR 34/21 A3003 RMK AO2 T03370209

More Conditions Fewer Conditions

Pressure 30.03 in
Visibility 10.0 miles
Clouds Clear
Heat Index 98 °F
Dew Point 70 °F
Humidity 47%
Rainfall 0.00 in
Snow Depth Not available.
UV 8 out of 12
Pollen 8.80 out of 12
Air Quality Not available.
Flu Activity Not available.
METAR KRSN 232015Z AUTO 20005KT 10SM CLR 34/21 A3003 RMK AO2 T03370209

More Conditions Fewer Conditions

10-Day Weather Forecast

Almanac

Astronomy

Aug. 23, 2014 Rise Set
Actual Time 6:39 AM CDT 7:46 PM CDT
Civil Twilight 6:14 AM CDT 8:11 PM CDT
Nautical Twilight 5:44 AM CDT 8:41 PM CDT
Astronomical Twilight 5:12 AM CDT 9:12 PM CDT
Moon 4:58 AM CDT 6:30 PM CDT
Length of Visible Light 13h 57m
Length of Day
13h 06m
Tomorrow will be 1m 50s shorter.
Waning Crescent, 3% of the Moon is Illuminated
Today
Waning Crescent
Aug 25
New
Sep 2
First Quarter
Sep 8
Full
Sep 15
Last Quarter

Today's Extremes

State Highs State Lows

Community

WunderPhotos

Upload Photos

1,746,619 photos uploaded!

WunderBlogs® & News

Nearby

Snow Depth

Station Depth Elevation
No new snow has been reported.

Earthquake Activity

City Distance Mag. Time & Date
No recent earthquake activity has been reported nearby.
Minimum magnitude displayed is 2.5.

Coastal Water Temperatures

Place Temperature
No Stations Reporting

Nearby Weather Stations